sensor_id;sensor_type;location;lat;lon;timestamp;temperature;humidity
78455;SHT31;67751;51.986;5.696;2023-05-10T00:02:13;16.1;76.0
78455;SHT31;67751;51.986;5.696;2023-05-10T00:04:43;16.1;76.0
78455;SHT31;67751;51.986;5.696;2023-05-10T00:07:14;16.1;76.0
78455;SHT31;67751;51.986;5.696;2023-05-10T00:09:45;16.1;76.0
78455;SHT31;67751;51.986;5.696;2023-05-10T00:12:14;16.1;76.1
78455;SHT31;67751;51.986;5.696;2023-05-10T00:14:44;16.1;76.1
78455;SHT31;67751;51.986;5.696;2023-05-10T00:17:13;16.1;76.2
78455;SHT31;67751;51.986;5.696;2023-05-10T00:19:43;16.1;76.0
78455;SHT31;67751;51.986;5.696;2023-05-10T00:22:12;16.1;76.2
78455;SHT31;67751;51.986;5.696;2023-05-10T00:24:42;16.1;76.2
78455;SHT31;67751;51.986;5.696;2023-05-10T00:27:11;16.1;76.1
78455;SHT31;67751;51.986;5.696;2023-05-10T00:29:41;16.1;76.2
78455;SHT31;67751;51.986;5.696;2023-05-10T00:32:11;16.1;76.2
78455;SHT31;67751;51.986;5.696;2023-05-10T00:34:42;16.1;76.3
78455;SHT31;67751;51.986;5.696;2023-05-10T00:37:11;16.1;76.4
78455;SHT31;67751;51.986;5.696;2023-05-10T00:39:41;16.1;76.3
78455;SHT31;67751;51.986;5.696;2023-05-10T00:42:10;16.1;76.3
78455;SHT31;67751;51.986;5.696;2023-05-10T00:44:40;16.1;76.3
78455;SHT31;67751;51.986;5.696;2023-05-10T00:47:10;16.1;76.3
78455;SHT31;67751;51.986;5.696;2023-05-10T00:49:40;16.1;76.3
78455;SHT31;67751;51.986;5.696;2023-05-10T00:52:10;16.2;76.3
78455;SHT31;67751;51.986;5.696;2023-05-10T00:54:42;16.1;76.2
78455;SHT31;67751;51.986;5.696;2023-05-10T00:57:12;16.1;76.4
78455;SHT31;67751;51.986;5.696;2023-05-10T00:59:41;16.1;76.5
78455;SHT31;67751;51.986;5.696;2023-05-10T01:02:13;16.1;76.5
78455;SHT31;67751;51.986;5.696;2023-05-10T01:04:43;16.1;76.5
78455;SHT31;67751;51.986;5.696;2023-05-10T01:07:15;16.1;76.7
78455;SHT31;67751;51.986;5.696;2023-05-10T01:09:45;16.1;76.8
78455;SHT31;67751;51.986;5.696;2023-05-10T01:12:17;16.1;76.8
78455;SHT31;67751;51.986;5.696;2023-05-10T01:14:49;16.1;76.9
78455;SHT31;67751;51.986;5.696;2023-05-10T01:17:22;16.1;77.0
78455;SHT31;67751;51.986;5.696;2023-05-10T01:19:52;16.1;77.1
78455;SHT31;67751;51.986;5.696;2023-05-10T01:28:35;16.1;77.3
78455;SHT31;67751;51.986;5.696;2023-05-10T01:32:11;16.1;77.4
78455;SHT31;67751;51.986;5.696;2023-05-10T01:34:51;16.1;77.6
78455;SHT31;67751;51.986;5.696;2023-05-10T01:37:33;16.1;77.7
78455;SHT31;67751;51.986;5.696;2023-05-10T01:40:15;16.1;77.7
78455;SHT31;67751;51.986;5.696;2023-05-10T01:42:53;16.1;77.6
78455;SHT31;67751;51.986;5.696;2023-05-10T01:45:30;16.1;77.6
78455;SHT31;67751;51.986;5.696;2023-05-10T01:48:06;16.1;77.7
78455;SHT31;67751;51.986;5.696;2023-05-10T01:50:41;16.1;77.7
78455;SHT31;67751;51.986;5.696;2023-05-10T01:53:13;16.1;77.7
78455;SHT31;67751;51.986;5.696;2023-05-10T01:55:49;16.1;77.7
78455;SHT31;67751;51.986;5.696;2023-05-10T01:58:23;16.0;77.7
78455;SHT31;67751;51.986;5.696;2023-05-10T02:00:55;16.0;77.8
78455;SHT31;67751;51.986;5.696;2023-05-10T02:03:28;16.0;77.8
78455;SHT31;67751;51.986;5.696;2023-05-10T02:05:59;16.0;77.7
78455;SHT31;67751;51.986;5.696;2023-05-10T02:08:30;16.0;77.8
78455;SHT31;67751;51.986;5.696;2023-05-10T02:11:04;16.0;77.8
78455;SHT31;67751;51.986;5.696;2023-05-10T02:13:36;16.0;77.8
78455;SHT31;67751;51.986;5.696;2023-05-10T02:16:08;16.0;77.7
78455;SHT31;67751;51.986;5.696;2023-05-10T02:18:40;16.0;77.9
78455;SHT31;67751;51.986;5.696;2023-05-10T02:21:11;16.0;77.8
78455;SHT31;67751;51.986;5.696;2023-05-10T02:23:42;16.0;77.8
78455;SHT31;67751;51.986;5.696;2023-05-10T02:26:15;16.0;77.7
78455;SHT31;67751;51.986;5.696;2023-05-10T02:28:47;16.0;77.8
78455;SHT31;67751;51.986;5.696;2023-05-10T02:31:18;16.0;77.8
78455;SHT31;67751;51.986;5.696;2023-05-10T02:33:49;16.0;77.8
78455;SHT31;67751;51.986;5.696;2023-05-10T02:36:21;16.0;77.8
78455;SHT31;67751;51.986;5.696;2023-05-10T02:38:53;16.0;77.7
78455;SHT31;67751;51.986;5.696;2023-05-10T02:41:25;16.0;77.6
78455;SHT31;67751;51.986;5.696;2023-05-10T02:43:59;16.0;77.6
78455;SHT31;67751;51.986;5.696;2023-05-10T02:46:31;16.0;77.4
78455;SHT31;67751;51.986;5.696;2023-05-10T02:49:01;16.0;77.4
78455;SHT31;67751;51.986;5.696;2023-05-10T02:51:32;16.0;77.4
78455;SHT31;67751;51.986;5.696;2023-05-10T02:54:12;15.9;77.2
78455;SHT31;67751;51.986;5.696;2023-05-10T02:56:49;15.9;77.3
78455;SHT31;67751;51.986;5.696;2023-05-10T02:59:22;15.9;77.3
78455;SHT31;67751;51.986;5.696;2023-05-10T03:01:52;15.9;77.3
78455;SHT31;67751;51.986;5.696;2023-05-10T03:04:22;15.9;77.1
78455;SHT31;67751;51.986;5.696;2023-05-10T03:06:52;15.9;76.7
78455;SHT31;67751;51.986;5.696;2023-05-10T03:09:22;15.9;77.1
78455;SHT31;67751;51.986;5.696;2023-05-10T03:12:00;15.9;76.7
78455;SHT31;67751;51.986;5.696;2023-05-10T03:14:45;15.8;76.7
78455;SHT31;67751;51.986;5.696;2023-05-10T03:17:25;15.8;76.6
78455;SHT31;67751;51.986;5.696;2023-05-10T03:20:06;15.8;76.8
78455;SHT31;67751;51.986;5.696;2023-05-10T03:22:47;15.8;76.6
78455;SHT31;67751;51.986;5.696;2023-05-10T03:25:19;15.8;76.8
78455;SHT31;67751;51.986;5.696;2023-05-10T03:27:52;15.7;76.9
78455;SHT31;67751;51.986;5.696;2023-05-10T03:30:22;15.7;76.8
78455;SHT31;67751;51.986;5.696;2023-05-10T03:32:53;15.7;76.9
78455;SHT31;67751;51.986;5.696;2023-05-10T03:35:24;15.7;76.9
78455;SHT31;67751;51.986;5.696;2023-05-10T03:37:54;15.7;76.7
78455;SHT31;67751;51.986;5.696;2023-05-10T03:40:24;15.7;76.7
78455;SHT31;67751;51.986;5.696;2023-05-10T03:42:56;15.7;76.8
78455;SHT31;67751;51.986;5.696;2023-05-10T03:45:26;15.7;76.9
78455;SHT31;67751;51.986;5.696;2023-05-10T03:47:55;15.6;77.0
78455;SHT31;67751;51.986;5.696;2023-05-10T03:50:26;15.6;76.8
78455;SHT31;67751;51.986;5.696;2023-05-10T03:52:56;15.6;77.2
78455;SHT31;67751;51.986;5.696;2023-05-10T03:55:25;15.6;77.3
78455;SHT31;67751;51.986;5.696;2023-05-10T03:57:55;15.6;77.7
78455;SHT31;67751;51.986;5.696;2023-05-10T04:00:25;15.6;77.8
78455;SHT31;67751;51.986;5.696;2023-05-10T04:02:54;15.6;77.7
78455;SHT31;67751;51.986;5.696;2023-05-10T04:05:24;15.6;77.5
78455;SHT31;67751;51.986;5.696;2023-05-10T04:07:54;15.6;77.8
78455;SHT31;67751;51.986;5.696;2023-05-10T04:10:23;15.6;77.6
78455;SHT31;67751;51.986;5.696;2023-05-10T04:12:53;15.6;77.4
78455;SHT31;67751;51.986;5.696;2023-05-10T04:15:22;15.6;77.4
78455;SHT31;67751;51.986;5.696;2023-05-10T04:17:52;15.6;77.3
78455;SHT31;67751;51.986;5.696;2023-05-10T04:20:21;15.6;77.3
78455;SHT31;67751;51.986;5.696;2023-05-10T04:22:51;15.6;77.5
78455;SHT31;67751;51.986;5.696;2023-05-10T04:25:21;15.6;77.2
78455;SHT31;67751;51.986;5.696;2023-05-10T04:27:51;15.6;77.1
78455;SHT31;67751;51.986;5.696;2023-05-10T04:30:21;15.6;77.0
78455;SHT31;67751;51.986;5.696;2023-05-10T04:32:51;15.6;77.0
78455;SHT31;67751;51.986;5.696;2023-05-10T04:35:20;15.6;77.0
78455;SHT31;67751;51.986;5.696;2023-05-10T04:37:50;15.6;77.3
78455;SHT31;67751;51.986;5.696;2023-05-10T04:40:20;15.6;77.4
78455;SHT31;67751;51.986;5.696;2023-05-10T04:42:52;15.6;77.0
78455;SHT31;67751;51.986;5.696;2023-05-10T04:45:21;15.6;77.1
78455;SHT31;67751;51.986;5.696;2023-05-10T04:47:51;15.6;76.8
78455;SHT31;67751;51.986;5.696;2023-05-10T04:50:21;15.6;77.2
78455;SHT31;67751;51.986;5.696;2023-05-10T04:52:50;15.6;77.4
78455;SHT31;67751;51.986;5.696;2023-05-10T04:55:20;15.6;77.4
78455;SHT31;67751;51.986;5.696;2023-05-10T04:57:50;15.6;77.1
78455;SHT31;67751;51.986;5.696;2023-05-10T05:00:20;15.6;77.1
78455;SHT31;67751;51.986;5.696;2023-05-10T05:02:49;15.6;76.9
78455;SHT31;67751;51.986;5.696;2023-05-10T05:05:21;15.6;77.2
78455;SHT31;67751;51.986;5.696;2023-05-10T05:07:51;15.6;77.4
78455;SHT31;67751;51.986;5.696;2023-05-10T05:10:22;15.6;77.5
78455;SHT31;67751;51.986;5.696;2023-05-10T05:12:52;15.6;77.4
78455;SHT31;67751;51.986;5.696;2023-05-10T05:15:21;15.6;77.4
78455;SHT31;67751;51.986;5.696;2023-05-10T05:17:52;15.6;77.4
78455;SHT31;67751;51.986;5.696;2023-05-10T05:20:22;15.6;77.7
78455;SHT31;67751;51.986;5.696;2023-05-10T05:22:52;15.6;77.9
78455;SHT31;67751;51.986;5.696;2023-05-10T05:25:21;15.6;77.7
78455;SHT31;67751;51.986;5.696;2023-05-10T05:27:51;15.6;77.7
78455;SHT31;67751;51.986;5.696;2023-05-10T05:30:21;15.6;77.8
78455;SHT31;67751;51.986;5.696;2023-05-10T05:32:50;15.6;77.7
78455;SHT31;67751;51.986;5.696;2023-05-10T05:35:20;15.6;77.6
78455;SHT31;67751;51.986;5.696;2023-05-10T05:37:49;15.6;77.7
78455;SHT31;67751;51.986;5.696;2023-05-10T05:40:19;15.6;77.8
78455;SHT31;67751;51.986;5.696;2023-05-10T05:42:49;15.6;77.7
78455;SHT31;67751;51.986;5.696;2023-05-10T05:45:19;15.6;77.5
78455;SHT31;67751;51.986;5.696;2023-05-10T05:47:48;15.6;77.8
78455;SHT31;67751;51.986;5.696;2023-05-10T05:50:18;15.6;77.5
78455;SHT31;67751;51.986;5.696;2023-05-10T05:52:48;15.6;77.5
78455;SHT31;67751;51.986;5.696;2023-05-10T05:55:18;15.6;77.9
78455;SHT31;67751;51.986;5.696;2023-05-10T05:57:48;15.6;77.8
78455;SHT31;67751;51.986;5.696;2023-05-10T06:00:18;15.6;77.6
78455;SHT31;67751;51.986;5.696;2023-05-10T06:02:48;15.6;77.9
78455;SHT31;67751;51.986;5.696;2023-05-10T06:05:18;15.6;77.8
78455;SHT31;67751;51.986;5.696;2023-05-10T06:07:48;15.6;77.8
78455;SHT31;67751;51.986;5.696;2023-05-10T06:10:18;15.6;77.7
78455;SHT31;67751;51.986;5.696;2023-05-10T06:12:47;15.6;78.1
78455;SHT31;67751;51.986;5.696;2023-05-10T06:15:17;15.6;78.2
78455;SHT31;67751;51.986;5.696;2023-05-10T06:17:47;15.6;78.3
78455;SHT31;67751;51.986;5.696;2023-05-10T06:20:17;15.6;78.2
78455;SHT31;67751;51.986;5.696;2023-05-10T06:22:49;15.6;78.2
78455;SHT31;67751;51.986;5.696;2023-05-10T06:25:18;15.6;78.2
78455;SHT31;67751;51.986;5.696;2023-05-10T06:27:49;15.6;78.4
78455;SHT31;67751;51.986;5.696;2023-05-10T06:30:22;15.6;78.3
78455;SHT31;67751;51.986;5.696;2023-05-10T06:32:54;15.6;78.4
78455;SHT31;67751;51.986;5.696;2023-05-10T06:35:24;15.6;78.4
78455;SHT31;67751;51.986;5.696;2023-05-10T06:37:54;15.6;78.5
78455;SHT31;67751;51.986;5.696;2023-05-10T06:40:24;15.6;78.7
78455;SHT31;67751;51.986;5.696;2023-05-10T06:42:54;15.6;78.5
78455;SHT31;67751;51.986;5.696;2023-05-10T06:45:23;15.6;78.7
78455;SHT31;67751;51.986;5.696;2023-05-10T06:47:53;15.6;78.7
78455;SHT31;67751;51.986;5.696;2023-05-10T06:50:22;15.6;78.8
78455;SHT31;67751;51.986;5.696;2023-05-10T06:52:52;15.6;78.7
78455;SHT31;67751;51.986;5.696;2023-05-10T06:55:24;15.6;78.9
78455;SHT31;67751;51.986;5.696;2023-05-10T06:57:54;15.6;78.9
78455;SHT31;67751;51.986;5.696;2023-05-10T07:00:24;15.6;78.8
78455;SHT31;67751;51.986;5.696;2023-05-10T07:02:54;15.6;79.0
78455;SHT31;67751;51.986;5.696;2023-05-10T07:05:24;15.6;78.6
78455;SHT31;67751;51.986;5.696;2023-05-10T07:07:55;15.6;78.6
78455;SHT31;67751;51.986;5.696;2023-05-10T07:10:24;15.6;78.7
78455;SHT31;67751;51.986;5.696;2023-05-10T07:12:54;15.6;78.6
78455;SHT31;67751;51.986;5.696;2023-05-10T07:15:23;15.6;78.9
78455;SHT31;67751;51.986;5.696;2023-05-10T07:17:55;15.7;78.7
78455;SHT31;67751;51.986;5.696;2023-05-10T07:20:24;15.7;78.7
78455;SHT31;67751;51.986;5.696;2023-05-10T07:22:54;15.7;78.4
78455;SHT31;67751;51.986;5.696;2023-05-10T07:25:24;15.7;78.3
78455;SHT31;67751;51.986;5.696;2023-05-10T07:27:55;15.7;78.3
78455;SHT31;67751;51.986;5.696;2023-05-10T07:30:25;15.7;78.6
78455;SHT31;67751;51.986;5.696;2023-05-10T07:32:55;15.7;78.6
78455;SHT31;67751;51.986;5.696;2023-05-10T07:35:24;15.8;78.6
78455;SHT31;67751;51.986;5.696;2023-05-10T07:37:54;15.8;78.6
78455;SHT31;67751;51.986;5.696;2023-05-10T07:40:24;15.8;78.3
78455;SHT31;67751;51.986;5.696;2023-05-10T07:42:53;15.8;78.2
78455;SHT31;67751;51.986;5.696;2023-05-10T07:45:23;15.8;78.4
78455;SHT31;67751;51.986;5.696;2023-05-10T07:47:53;15.8;78.3
78455;SHT31;67751;51.986;5.696;2023-05-10T07:50:22;15.8;78.2
78455;SHT31;67751;51.986;5.696;2023-05-10T07:52:52;15.8;79.0
78455;SHT31;67751;51.986;5.696;2023-05-10T07:55:22;15.8;79.4
78455;SHT31;67751;51.986;5.696;2023-05-10T07:57:52;15.8;78.9
78455;SHT31;67751;51.986;5.696;2023-05-10T08:00:21;15.9;78.6
78455;SHT31;67751;51.986;5.696;2023-05-10T08:02:51;15.9;78.5
78455;SHT31;67751;51.986;5.696;2023-05-10T08:05:20;15.9;78.1
78455;SHT31;67751;51.986;5.696;2023-05-10T08:07:50;15.9;78.3
78455;SHT31;67751;51.986;5.696;2023-05-10T08:10:21;15.9;78.1
78455;SHT31;67751;51.986;5.696;2023-05-10T08:12:51;15.9;76.8
78455;SHT31;67751;51.986;5.696;2023-05-10T08:15:21;15.9;76.3
78455;SHT31;67751;51.986;5.696;2023-05-10T08:17:51;15.8;75.9
78455;SHT31;67751;51.986;5.696;2023-05-10T08:20:20;15.8;76.2
78455;SHT31;67751;51.986;5.696;2023-05-10T08:22:52;15.8;76.4
78455;SHT31;67751;51.986;5.696;2023-05-10T08:25:22;15.8;75.3
78455;SHT31;67751;51.986;5.696;2023-05-10T08:27:52;15.7;75.5
78455;SHT31;67751;51.986;5.696;2023-05-10T08:30:21;15.7;75.9
78455;SHT31;67751;51.986;5.696;2023-05-10T08:32:53;15.6;75.6
78455;SHT31;67751;51.986;5.696;2023-05-10T08:35:22;15.6;76.8
78455;SHT31;67751;51.986;5.696;2023-05-10T08:37:52;15.6;77.7
78455;SHT31;67751;51.986;5.696;2023-05-10T08:40:24;15.6;77.2
78455;SHT31;67751;51.986;5.696;2023-05-10T08:43:01;15.6;76.8
78455;SHT31;67751;51.986;5.696;2023-05-10T08:45:38;15.6;77.5
78455;SHT31;67751;51.986;5.696;2023-05-10T08:48:09;15.6;77.8
78455;SHT31;67751;51.986;5.696;2023-05-10T08:50:41;15.6;78.3
78455;SHT31;67751;51.986;5.696;2023-05-10T08:53:12;15.6;76.6
78455;SHT31;67751;51.986;5.696;2023-05-10T08:55:43;15.6;77.0
78455;SHT31;67751;51.986;5.696;2023-05-10T08:58:12;15.6;76.9
78455;SHT31;67751;51.986;5.696;2023-05-10T09:00:43;15.6;76.4
78455;SHT31;67751;51.986;5.696;2023-05-10T09:03:13;15.7;75.7
78455;SHT31;67751;51.986;5.696;2023-05-10T09:05:43;15.7;74.7
78455;SHT31;67751;51.986;5.696;2023-05-10T09:08:14;15.7;76.9
78455;SHT31;67751;51.986;5.696;2023-05-10T09:10:45;15.7;77.8
78455;SHT31;67751;51.986;5.696;2023-05-10T09:13:17;15.7;75.8
78455;SHT31;67751;51.986;5.696;2023-05-10T09:15:48;15.7;75.7
78455;SHT31;67751;51.986;5.696;2023-05-10T09:18:18;15.7;76.5
78455;SHT31;67751;51.986;5.696;2023-05-10T09:20:50;15.7;76.5
78455;SHT31;67751;51.986;5.696;2023-05-10T09:23:19;15.8;77.7
78455;SHT31;67751;51.986;5.696;2023-05-10T09:26:03;15.8;77.5
78455;SHT31;67751;51.986;5.696;2023-05-10T09:28:34;15.9;76.5
78455;SHT31;67751;51.986;5.696;2023-05-10T09:31:06;15.8;76.2
78455;SHT31;67751;51.986;5.696;2023-05-10T09:33:43;15.9;76.6
78455;SHT31;67751;51.986;5.696;2023-05-10T09:36:15;15.9;75.0
78455;SHT31;67751;51.986;5.696;2023-05-10T09:38:49;15.9;75.4
78455;SHT31;67751;51.986;5.696;2023-05-10T09:41:21;16.0;77.0
78455;SHT31;67751;51.986;5.696;2023-05-10T09:43:56;16.0;75.7
78455;SHT31;67751;51.986;5.696;2023-05-10T09:46:27;16.0;76.9
78455;SHT31;67751;51.986;5.696;2023-05-10T09:49:00;16.0;72.7
78455;SHT31;67751;51.986;5.696;2023-05-10T09:51:29;16.1;74.6
78455;SHT31;67751;51.986;5.696;2023-05-10T09:54:12;16.1;74.3
78455;SHT31;67751;51.986;5.696;2023-05-10T09:56:42;16.1;75.6
78455;SHT31;67751;51.986;5.696;2023-05-10T09:59:12;16.1;75.9
78455;SHT31;67751;51.986;5.696;2023-05-10T10:01:52;16.1;73.5
78455;SHT31;67751;51.986;5.696;2023-05-10T10:04:23;16.2;74.7
78455;SHT31;67751;51.986;5.696;2023-05-10T10:07:05;16.2;74.6
78455;SHT31;67751;51.986;5.696;2023-05-10T10:09:35;16.2;74.9
78455;SHT31;67751;51.986;5.696;2023-05-10T10:12:05;16.2;74.5
78455;SHT31;67751;51.986;5.696;2023-05-10T10:14:36;16.2;74.8
78455;SHT31;67751;51.986;5.696;2023-05-10T10:17:08;16.2;73.3
78455;SHT31;67751;51.986;5.696;2023-05-10T10:19:38;16.2;75.3
78455;SHT31;67751;51.986;5.696;2023-05-10T10:22:08;16.2;73.1
78455;SHT31;67751;51.986;5.696;2023-05-10T10:24:40;16.2;75.1
78455;SHT31;67751;51.986;5.696;2023-05-10T10:27:19;16.2;73.9
78455;SHT31;67751;51.986;5.696;2023-05-10T10:30:02;16.2;74.4
78455;SHT31;67751;51.986;5.696;2023-05-10T10:32:47;16.2;73.6
78455;SHT31;67751;51.986;5.696;2023-05-10T10:35:19;16.2;74.8
78455;SHT31;67751;51.986;5.696;2023-05-10T10:37:50;16.2;72.7
78455;SHT31;67751;51.986;5.696;2023-05-10T10:40:31;16.2;72.8
78455;SHT31;67751;51.986;5.696;2023-05-10T10:43:22;16.2;71.2
78455;SHT31;67751;51.986;5.696;2023-05-10T10:46:10;16.2;73.7
78455;SHT31;67751;51.986;5.696;2023-05-10T10:48:49;16.2;74.1
78455;SHT31;67751;51.986;5.696;2023-05-10T10:51:19;16.3;75.5
78455;SHT31;67751;51.986;5.696;2023-05-10T10:53:49;16.3;75.7
78455;SHT31;67751;51.986;5.696;2023-05-10T10:56:22;16.3;75.3
78455;SHT31;67751;51.986;5.696;2023-05-10T10:58:51;16.3;73.5
78455;SHT31;67751;51.986;5.696;2023-05-10T11:01:21;16.3;73.5
78455;SHT31;67751;51.986;5.696;2023-05-10T11:04:43;16.3;73.3
78455;SHT31;67751;51.986;5.696;2023-05-10T11:07:19;16.4;75.3
78455;SHT31;67751;51.986;5.696;2023-05-10T11:09:52;16.4;75.4
78455;SHT31;67751;51.986;5.696;2023-05-10T11:12:24;16.4;75.7
78455;SHT31;67751;51.986;5.696;2023-05-10T11:14:57;16.4;73.9
78455;SHT31;67751;51.986;5.696;2023-05-10T11:17:27;16.4;75.2
78455;SHT31;67751;51.986;5.696;2023-05-10T11:20:06;16.5;74.9
78455;SHT31;67751;51.986;5.696;2023-05-10T11:22:51;16.5;75.9
78455;SHT31;67751;51.986;5.696;2023-05-10T11:25:28;16.5;73.3
78455;SHT31;67751;51.986;5.696;2023-05-10T11:27:58;16.5;72.0
78455;SHT31;67751;51.986;5.696;2023-05-10T11:30:32;16.5;72.5
78455;SHT31;67751;51.986;5.696;2023-05-10T11:33:01;16.5;74.3
78455;SHT31;67751;51.986;5.696;2023-05-10T11:35:36;16.5;74.9
78455;SHT31;67751;51.986;5.696;2023-05-10T11:38:08;16.5;74.6
78455;SHT31;67751;51.986;5.696;2023-05-10T11:40:39;16.6;75.1
78455;SHT31;67751;51.986;5.696;2023-05-10T11:43:10;16.6;75.1
78455;SHT31;67751;51.986;5.696;2023-05-10T11:45:41;16.6;74.2
78455;SHT31;67751;51.986;5.696;2023-05-10T11:48:11;16.6;74.0
78455;SHT31;67751;51.986;5.696;2023-05-10T11:50:41;16.6;74.3
78455;SHT31;67751;51.986;5.696;2023-05-10T11:53:10;16.6;74.3
78455;SHT31;67751;51.986;5.696;2023-05-10T11:55:42;16.6;73.3
78455;SHT31;67751;51.986;5.696;2023-05-10T11:58:12;16.6;69.7
78455;SHT31;67751;51.986;5.696;2023-05-10T12:00:42;16.6;70.6
78455;SHT31;67751;51.986;5.696;2023-05-10T12:03:13;16.6;73.0
78455;SHT31;67751;51.986;5.696;2023-05-10T12:05:43;16.7;74.9
78455;SHT31;67751;51.986;5.696;2023-05-10T12:08:14;16.7;74.5
78455;SHT31;67751;51.986;5.696;2023-05-10T12:10:43;16.7;71.9
78455;SHT31;67751;51.986;5.696;2023-05-10T12:13:14;16.8;71.1
78455;SHT31;67751;51.986;5.696;2023-05-10T12:15:44;16.8;72.1
78455;SHT31;67751;51.986;5.696;2023-05-10T12:18:14;16.8;74.2
78455;SHT31;67751;51.986;5.696;2023-05-10T12:20:46;16.9;74.3
78455;SHT31;67751;51.986;5.696;2023-05-10T12:23:15;16.9;72.8
78455;SHT31;67751;51.986;5.696;2023-05-10T12:25:45;16.9;70.7
78455;SHT31;67751;51.986;5.696;2023-05-10T12:28:19;17.0;71.9
78455;SHT31;67751;51.986;5.696;2023-05-10T12:30:53;17.0;70.9
78455;SHT31;67751;51.986;5.696;2023-05-10T12:33:23;17.0;71.0
78455;SHT31;67751;51.986;5.696;2023-05-10T12:35:54;17.0;72.8
78455;SHT31;67751;51.986;5.696;2023-05-10T12:38:27;17.0;72.5
78455;SHT31;67751;51.986;5.696;2023-05-10T12:40:59;17.1;71.3
78455;SHT31;67751;51.986;5.696;2023-05-10T12:43:30;17.1;68.7
78455;SHT31;67751;51.986;5.696;2023-05-10T12:46:04;17.1;69.3
78455;SHT31;67751;51.986;5.696;2023-05-10T12:48:34;17.1;69.5
78455;SHT31;67751;51.986;5.696;2023-05-10T12:51:05;17.2;69.2
78455;SHT31;67751;51.986;5.696;2023-05-10T12:53:36;17.2;70.2
78455;SHT31;67751;51.986;5.696;2023-05-10T12:56:06;17.2;67.3
78455;SHT31;67751;51.986;5.696;2023-05-10T12:58:37;17.2;68.7
78455;SHT31;67751;51.986;5.696;2023-05-10T13:01:09;17.2;72.8
78455;SHT31;67751;51.986;5.696;2023-05-10T13:03:39;17.2;71.6
78455;SHT31;67751;51.986;5.696;2023-05-10T13:06:08;17.3;72.4
78455;SHT31;67751;51.986;5.696;2023-05-10T13:08:40;17.3;72.6
78455;SHT31;67751;51.986;5.696;2023-05-10T13:11:09;17.3;72.5
78455;SHT31;67751;51.986;5.696;2023-05-10T13:13:43;17.3;71.1
78455;SHT31;67751;51.986;5.696;2023-05-10T13:16:13;17.3;70.7
78455;SHT31;67751;51.986;5.696;2023-05-10T13:18:43;17.3;71.3
78455;SHT31;67751;51.986;5.696;2023-05-10T13:21:12;17.3;71.0
78455;SHT31;67751;51.986;5.696;2023-05-10T13:23:42;17.3;71.3
78455;SHT31;67751;51.986;5.696;2023-05-10T13:26:11;17.2;71.3
78455;SHT31;67751;51.986;5.696;2023-05-10T13:28:41;17.2;71.3
78455;SHT31;67751;51.986;5.696;2023-05-10T13:31:10;17.1;72.2
78455;SHT31;67751;51.986;5.696;2023-05-10T13:33:40;17.1;72.7
78455;SHT31;67751;51.986;5.696;2023-05-10T13:36:10;17.1;73.7
78455;SHT31;67751;51.986;5.696;2023-05-10T13:38:39;17.0;74.2
78455;SHT31;67751;51.986;5.696;2023-05-10T13:41:09;17.0;74.6
78455;SHT31;67751;51.986;5.696;2023-05-10T13:43:39;16.9;74.6
78455;SHT31;67751;51.986;5.696;2023-05-10T13:46:09;16.9;75.0
78455;SHT31;67751;51.986;5.696;2023-05-10T13:48:38;16.9;75.0
78455;SHT31;67751;51.986;5.696;2023-05-10T13:51:08;16.8;74.9
78455;SHT31;67751;51.986;5.696;2023-05-10T13:53:38;16.8;75.6
78455;SHT31;67751;51.986;5.696;2023-05-10T13:56:08;16.8;75.9
78455;SHT31;67751;51.986;5.696;2023-05-10T13:58:37;16.7;75.3
78455;SHT31;67751;51.986;5.696;2023-05-10T14:01:07;16.7;75.4
78455;SHT31;67751;51.986;5.696;2023-05-10T14:03:38;16.7;75.9
78455;SHT31;67751;51.986;5.696;2023-05-10T14:06:08;16.6;74.7
78455;SHT31;67751;51.986;5.696;2023-05-10T14:08:38;16.5;74.8
78455;SHT31;67751;51.986;5.696;2023-05-10T14:11:09;16.5;75.2
78455;SHT31;67751;51.986;5.696;2023-05-10T14:13:39;16.5;74.7
78455;SHT31;67751;51.986;5.696;2023-05-10T14:16:09;16.4;75.2
78455;SHT31;67751;51.986;5.696;2023-05-10T14:18:38;16.4;75.6
78455;SHT31;67751;51.986;5.696;2023-05-10T14:21:10;16.4;76.3
78455;SHT31;67751;51.986;5.696;2023-05-10T14:23:39;16.3;76.0
78455;SHT31;67751;51.986;5.696;2023-05-10T14:26:09;16.3;76.6
78455;SHT31;67751;51.986;5.696;2023-05-10T14:28:39;16.3;76.2
78455;SHT31;67751;51.986;5.696;2023-05-10T14:31:09;16.3;76.7
78455;SHT31;67751;51.986;5.696;2023-05-10T14:33:39;16.3;76.1
78455;SHT31;67751;51.986;5.696;2023-05-10T14:36:09;16.3;76.9
78455;SHT31;67751;51.986;5.696;2023-05-10T14:38:40;16.3;76.9
78455;SHT31;67751;51.986;5.696;2023-05-10T14:41:10;16.3;77.1
78455;SHT31;67751;51.986;5.696;2023-05-10T14:43:42;16.3;76.5
78455;SHT31;67751;51.986;5.696;2023-05-10T14:46:12;16.3;77.2
78455;SHT31;67751;51.986;5.696;2023-05-10T14:48:41;16.3;76.6
78455;SHT31;67751;51.986;5.696;2023-05-10T14:51:11;16.3;77.3
78455;SHT31;67751;51.986;5.696;2023-05-10T14:53:40;16.3;77.4
78455;SHT31;67751;51.986;5.696;2023-05-10T14:56:10;16.3;77.0
78455;SHT31;67751;51.986;5.696;2023-05-10T14:58:39;16.3;77.3
78455;SHT31;67751;51.986;5.696;2023-05-10T15:01:09;16.3;77.6
78455;SHT31;67751;51.986;5.696;2023-05-10T15:03:39;16.3;76.3
78455;SHT31;67751;51.986;5.696;2023-05-10T15:06:09;16.3;76.7
78455;SHT31;67751;51.986;5.696;2023-05-10T15:08:41;16.3;76.1
78455;SHT31;67751;51.986;5.696;2023-05-10T15:11:11;16.3;76.5
78455;SHT31;67751;51.986;5.696;2023-05-10T15:13:40;16.3;76.7
78455;SHT31;67751;51.986;5.696;2023-05-10T15:16:10;16.3;77.1
78455;SHT31;67751;51.986;5.696;2023-05-10T15:18:39;16.3;77.6
78455;SHT31;67751;51.986;5.696;2023-05-10T15:21:09;16.3;77.2
78455;SHT31;67751;51.986;5.696;2023-05-10T15:23:39;16.3;77.7
78455;SHT31;67751;51.986;5.696;2023-05-10T15:26:08;16.4;76.4
78455;SHT31;67751;51.986;5.696;2023-05-10T15:28:38;16.4;77.1
78455;SHT31;67751;51.986;5.696;2023-05-10T15:31:07;16.4;76.8
78455;SHT31;67751;51.986;5.696;2023-05-10T15:33:37;16.4;77.8
78455;SHT31;67751;51.986;5.696;2023-05-10T15:36:07;16.4;77.7
78455;SHT31;67751;51.986;5.696;2023-05-10T15:38:37;16.4;76.8
78455;SHT31;67751;51.986;5.696;2023-05-10T15:41:06;16.4;77.6
78455;SHT31;67751;51.986;5.696;2023-05-10T15:43:36;16.4;76.7
78455;SHT31;67751;51.986;5.696;2023-05-10T15:46:06;16.4;77.3
78455;SHT31;67751;51.986;5.696;2023-05-10T15:48:35;16.4;78.3
78455;SHT31;67751;51.986;5.696;2023-05-10T15:51:06;16.4;78.8
78455;SHT31;67751;51.986;5.696;2023-05-10T15:53:36;16.4;79.0
78455;SHT31;67751;51.986;5.696;2023-05-10T15:56:06;16.5;78.6
78455;SHT31;67751;51.986;5.696;2023-05-10T15:58:37;16.5;78.8
78455;SHT31;67751;51.986;5.696;2023-05-10T16:01:07;16.5;79.4
78455;SHT31;67751;51.986;5.696;2023-05-10T16:03:37;16.6;79.2
78455;SHT31;67751;51.986;5.696;2023-05-10T16:06:08;16.6;79.5
78455;SHT31;67751;51.986;5.696;2023-05-10T16:08:38;16.7;78.7
78455;SHT31;67751;51.986;5.696;2023-05-10T16:11:08;16.7;76.9
78455;SHT31;67751;51.986;5.696;2023-05-10T16:13:38;16.7;76.3
78455;SHT31;67751;51.986;5.696;2023-05-10T16:16:09;16.7;77.9
78455;SHT31;67751;51.986;5.696;2023-05-10T16:18:39;16.7;77.0
78455;SHT31;67751;51.986;5.696;2023-05-10T16:21:09;16.7;75.7
78455;SHT31;67751;51.986;5.696;2023-05-10T16:23:39;16.7;76.1
78455;SHT31;67751;51.986;5.696;2023-05-10T16:26:11;16.7;75.4
78455;SHT31;67751;51.986;5.696;2023-05-10T16:28:41;16.7;75.8
78455;SHT31;67751;51.986;5.696;2023-05-10T16:31:10;16.7;75.2
78455;SHT31;67751;51.986;5.696;2023-05-10T16:33:40;16.7;75.5
78455;SHT31;67751;51.986;5.696;2023-05-10T16:36:10;16.7;76.2